createdAt,value
2022-11-14T00:00:46.405Z,100440.41
2022-11-14T00:03:31.851Z,100432.53
2022-11-14T00:06:17.918Z,100442.31
2022-11-14T00:09:03.488Z,100433.13
2022-11-14T00:11:49.065Z,100417.44
2022-11-14T00:14:34.623Z,100325.78
2022-11-14T00:17:20.264Z,100422.44
2022-11-14T00:20:08.499Z,100436.38
2022-11-14T00:22:54.097Z,100433.81
2022-11-14T00:25:39.718Z,100440.00
2022-11-14T00:28:25.261Z,100400.19
2022-11-14T00:31:11.676Z,100429.56
2022-11-14T00:33:57.719Z,100446.19
2022-11-14T00:36:43.083Z,100417.22
2022-11-14T00:39:28.633Z,100446.72
2022-11-14T00:42:14.328Z,100460.19
2022-11-14T00:45:00.011Z,100442.50
2022-11-14T00:47:45.510Z,100457.63
2022-11-14T00:50:31.369Z,100463.47
2022-11-14T00:53:16.897Z,100490.47
2022-11-14T00:56:03.386Z,100475.19
2022-11-14T00:58:49.286Z,100234.28
2022-11-14T01:01:34.603Z,100472.88
2022-11-14T01:04:20.308Z,100414.50
2022-11-14T01:07:06.018Z,100411.50
2022-11-14T01:09:51.842Z,100480.41
2022-11-14T01:12:37.095Z,100486.56
2022-11-14T01:15:22.887Z,100472.63
2022-11-14T01:18:11.481Z,100484.88
2022-11-14T01:20:58.096Z,100483.53
2022-11-14T01:23:43.543Z,100475.78
2022-11-14T01:26:29.472Z,100473.84
2022-11-14T01:29:15.572Z,100488.88
2022-11-14T01:32:01.714Z,100492.56
2022-11-14T01:34:47.434Z,100500.38
2022-11-14T01:37:32.690Z,100506.63
2022-11-14T01:40:18.637Z,100513.78
2022-11-14T01:43:19.794Z,100507.25
2022-11-14T01:46:14.629Z,100519.00
2022-11-14T01:49:18.694Z,100518.47
2022-11-14T01:52:29.378Z,100522.63
2022-11-14T01:55:14.678Z,100518.84
2022-11-14T01:58:00.844Z,100503.63
2022-11-14T02:00:46.734Z,100534.31
2022-11-14T02:03:36.440Z,100529.69
2022-11-14T02:06:26.707Z,100419.72
2022-11-14T02:09:12.997Z,100540.69
2022-11-14T02:12:01.414Z,100460.47
2022-11-14T02:14:52.283Z,100458.13
2022-11-14T02:17:37.914Z,100552.78
2022-11-14T02:20:32.712Z,100558.56
2022-11-14T02:23:30.951Z,100545.19
2022-11-14T02:26:19.157Z,100555.88
2022-11-14T02:29:06.276Z,100550.03
2022-11-14T02:31:52.083Z,100544.31
2022-11-14T02:34:37.477Z,100514.59
2022-11-14T02:37:22.765Z,100545.63
2022-11-14T02:40:09.606Z,100499.50
2022-11-14T02:42:55.072Z,100558.44
2022-11-14T02:45:41.298Z,100560.22
2022-11-14T02:48:26.879Z,100557.84
2022-11-14T02:51:12.228Z,100562.16
2022-11-14T02:53:58.063Z,100494.88
2022-11-14T02:56:43.515Z,100569.13
2022-11-14T02:59:29.361Z,100556.94
2022-11-14T03:02:14.898Z,100574.25
2022-11-14T03:05:00.826Z,100535.19
2022-11-14T03:07:55.011Z,100578.41
2022-11-14T03:10:40.731Z,100585.50
2022-11-14T03:13:29.755Z,100572.69
2022-11-14T03:16:15.484Z,100582.56
2022-11-14T03:19:02.601Z,100586.47
2022-11-14T03:21:48.095Z,100593.38
2022-11-14T03:24:33.815Z,100580.69
2022-11-14T03:27:20.939Z,100580.53
2022-11-14T03:30:07.351Z,100568.81
2022-11-14T03:32:53.026Z,100554.97
2022-11-14T03:35:43.317Z,100600.69
2022-11-14T03:38:29.367Z,100523.69
2022-11-14T03:41:15.246Z,100599.72
2022-11-14T03:44:00.859Z,100593.44
2022-11-14T03:46:46.267Z,100615.59
2022-11-14T03:49:31.856Z,100558.97
2022-11-14T03:52:17.491Z,100625.94
2022-11-14T03:55:03.188Z,100526.13
2022-11-14T03:57:48.853Z,100627.63
2022-11-14T04:00:34.180Z,100634.25
2022-11-14T04:03:19.970Z,100640.94
2022-11-14T04:06:05.457Z,100623.81
2022-11-14T04:08:52.048Z,100573.38
2022-11-14T04:11:37.827Z,100452.81
2022-11-14T04:14:23.423Z,100617.16
2022-11-14T04:17:09.203Z,100616.78
2022-11-14T04:19:55.126Z,100629.38
2022-11-14T04:22:41.487Z,100589.28
2022-11-14T04:25:27.093Z,100631.00
2022-11-14T04:28:13.902Z,100653.25
2022-11-14T04:31:00.601Z,100625.06
2022-11-14T04:33:46.127Z,100630.19
2022-11-14T04:36:31.825Z,100629.47
2022-11-14T04:39:18.384Z,100666.78
2022-11-14T04:42:04.412Z,100659.03
2022-11-14T04:44:50.138Z,100668.16
2022-11-14T04:47:35.966Z,100681.53
2022-11-14T04:50:21.671Z,100669.38
2022-11-14T04:53:07.240Z,100678.72
2022-11-14T04:55:53.102Z,100682.88
2022-11-14T04:58:38.550Z,100616.13
2022-11-14T05:01:24.132Z,100534.47
2022-11-14T05:04:09.480Z,100673.03
2022-11-14T05:06:55.094Z,100672.31
2022-11-14T05:09:40.919Z,100677.25
2022-11-14T05:12:26.463Z,100669.94
2022-11-14T05:15:12.057Z,100649.63
2022-11-14T05:17:58.896Z,100582.81
2022-11-14T05:20:44.616Z,100712.34
2022-11-14T05:23:30.303Z,100729.06
2022-11-14T05:26:18.057Z,100670.38
2022-11-14T05:29:03.778Z,100737.94
2022-11-14T05:31:49.214Z,100750.88
2022-11-14T05:34:34.862Z,100728.94
2022-11-14T05:37:20.624Z,100750.50
2022-11-14T05:40:06.898Z,100721.78
2022-11-14T05:42:55.565Z,100757.34
2022-11-14T05:45:41.135Z,100770.97
2022-11-14T05:48:27.165Z,100760.78
2022-11-14T05:51:13.637Z,100758.53
2022-11-14T05:53:59.182Z,100773.41
2022-11-14T05:56:44.942Z,100763.84
2022-11-14T05:59:30.521Z,100768.88
2022-11-14T06:02:16.234Z,100785.06
2022-11-14T06:05:01.897Z,100757.25
2022-11-14T06:07:47.438Z,100745.13
2022-11-14T06:10:35.765Z,100773.81
2022-11-14T06:13:23.982Z,100757.63
2022-11-14T06:16:18.854Z,100501.56
2022-11-14T06:19:05.442Z,100666.34
2022-11-14T06:21:51.386Z,100708.22
2022-11-14T06:24:37.126Z,100800.69
2022-11-14T06:27:22.768Z,100794.88
2022-11-14T06:30:09.231Z,100795.94
2022-11-14T06:33:01.288Z,100765.47
2022-11-14T06:35:46.789Z,100828.72
2022-11-14T06:38:34.213Z,100815.91
2022-11-14T06:41:21.888Z,100824.69
2022-11-14T06:44:08.901Z,100820.59
2022-11-14T06:46:57.183Z,100836.44
2022-11-14T06:49:43.107Z,100816.41
2022-11-14T06:52:31.525Z,100728.47
2022-11-14T06:55:22.371Z,100824.72
2022-11-14T06:58:11.052Z,100762.63
2022-11-14T07:00:57.161Z,100733.22
2022-11-14T07:03:43.809Z,100861.00
2022-11-14T07:06:31.186Z,100822.59
2022-11-14T07:09:16.824Z,100844.91
2022-11-14T07:12:04.778Z,100725.47
2022-11-14T07:14:50.338Z,100858.69
2022-11-14T07:17:37.171Z,100782.28
2022-11-14T07:20:22.845Z,100782.28
2022-11-14T07:23:08.217Z,100797.25
2022-11-14T07:25:54.407Z,100843.16
2022-11-14T07:28:42.738Z,100886.31
2022-11-14T07:31:28.553Z,100877.84
2022-11-14T07:34:14.202Z,100800.44
2022-11-14T07:36:59.910Z,100867.44
2022-11-14T07:39:46.208Z,100822.63
2022-11-14T07:42:31.751Z,100825.00
2022-11-14T07:45:17.261Z,100894.56
2022-11-14T07:48:03.346Z,100868.59
2022-11-14T07:50:48.877Z,100881.59
2022-11-14T07:53:34.805Z,100832.44
2022-11-14T07:56:20.437Z,100901.03
2022-11-14T07:59:06.502Z,100652.56
2022-11-14T08:01:52.373Z,100906.75
2022-11-14T08:04:37.979Z,100886.75
2022-11-14T08:07:23.568Z,100790.47
2022-11-14T08:10:11.549Z,100874.66
2022-11-14T08:13:29.804Z,100870.50
2022-11-14T08:16:13.285Z,100875.91
2022-11-14T08:18:59.332Z,100872.09
2022-11-14T08:21:45.038Z,100820.19
2022-11-14T08:24:30.544Z,100908.81
2022-11-14T08:27:16.525Z,100889.44
2022-11-14T08:30:02.344Z,100816.78
2022-11-14T08:32:48.453Z,100900.13
2022-11-14T08:35:34.337Z,100893.47
2022-11-14T08:38:19.832Z,100906.53
2022-11-14T08:41:05.928Z,100897.69
2022-11-14T08:43:51.502Z,100905.34
2022-11-14T08:46:37.855Z,100889.69
2022-11-14T08:49:24.834Z,100890.25
2022-11-14T08:52:16.328Z,100901.91
2022-11-14T08:55:03.172Z,100893.63
2022-11-14T08:57:50.145Z,100896.91
2022-11-14T09:00:36.916Z,100842.06
2022-11-14T09:03:23.338Z,100905.03
2022-11-14T09:06:08.996Z,100895.34
2022-11-14T09:08:55.719Z,100913.84
2022-11-14T09:11:41.570Z,100825.22
2022-11-14T09:14:27.645Z,100922.88
2022-11-14T09:17:13.743Z,100918.53
2022-11-14T09:19:59.247Z,100869.31
2022-11-14T09:22:45.207Z,100907.19
2022-11-14T09:25:31.153Z,100810.97
2022-11-14T09:28:16.961Z,100909.94
2022-11-14T09:31:04.249Z,100903.03
2022-11-14T09:33:49.833Z,100886.53
2022-11-14T09:36:36.056Z,100904.31
2022-11-14T09:39:21.466Z,100881.63
2022-11-14T09:42:22.134Z,100913.94
2022-11-14T09:45:16.371Z,100898.56
2022-11-14T09:48:26.032Z,100576.84
2022-11-14T09:51:22.467Z,100918.22
2022-11-14T09:54:29.656Z,100918.94
2022-11-14T09:57:28.680Z,100916.03
2022-11-14T10:00:23.180Z,100890.00
2022-11-14T10:03:28.677Z,100910.56
2022-11-14T10:06:22.897Z,100905.50
2022-11-14T10:09:36.035Z,100906.78
2022-11-14T10:12:37.977Z,100894.00
2022-11-14T10:15:37.153Z,100790.63
2022-11-14T10:18:33.526Z,100854.09
2022-11-14T10:21:43.225Z,100914.78
2022-11-14T10:24:58.967Z,100918.97
2022-11-14T10:28:24.833Z,100900.28
2022-11-14T10:31:47.668Z,100893.47
2022-11-14T10:34:46.634Z,100790.22
2022-11-14T10:37:37.981Z,100885.13
2022-11-14T10:40:49.131Z,100889.91
2022-11-14T10:43:43.525Z,100788.28
2022-11-14T10:46:41.374Z,100806.78
2022-11-14T10:49:30.837Z,100849.66
2022-11-14T10:52:20.904Z,100837.84
2022-11-14T10:55:24.813Z,100884.19
2022-11-14T10:58:24.121Z,100851.41
2022-11-14T11:01:41.939Z,100893.09
2022-11-14T11:04:33.300Z,100876.13
2022-11-14T11:07:41.198Z,100887.41
2022-11-14T11:10:45.656Z,100866.88
2022-11-14T11:13:48.453Z,100869.16
2022-11-14T11:16:34.338Z,100817.59
2022-11-14T11:19:25.950Z,100873.13
2022-11-14T11:22:38.645Z,100882.50
2022-11-14T11:25:29.682Z,100897.53
2022-11-14T11:28:20.942Z,100870.31
2022-11-14T11:31:11.325Z,100873.84
2022-11-14T11:34:03.412Z,100884.34
2022-11-14T11:37:04.210Z,100874.25
2022-11-14T11:39:53.134Z,100849.13
2022-11-14T11:43:36.773Z,100835.75
2022-11-14T11:45:54.790Z,100893.66
2022-11-14T11:48:41.081Z,100886.75
2022-11-14T11:51:27.959Z,100767.78
2022-11-14T11:54:18.092Z,100897.78
2022-11-14T11:57:13.987Z,100864.91
2022-11-14T12:00:21.952Z,100886.53
2022-11-14T12:03:14.384Z,100822.97
2022-11-14T12:06:20.505Z,100899.59
2022-11-14T12:09:26.823Z,100897.75
2022-11-14T12:12:34.669Z,100876.16
2022-11-14T12:15:55.032Z,100783.75
2022-11-14T12:18:59.256Z,100897.88
2022-11-14T12:22:04.001Z,100908.38
2022-11-14T12:25:18.930Z,100779.66
2022-11-14T12:28:25.515Z,100864.69
2022-11-14T12:31:17.123Z,100905.69
2022-11-14T12:34:45.691Z,100882.09
2022-11-14T12:37:37.752Z,100905.19
2022-11-14T12:40:25.947Z,100848.75
2022-11-14T12:43:41.875Z,100906.97
2022-11-14T12:46:27.666Z,100854.50
2022-11-14T12:49:48.993Z,100909.00
2022-11-14T12:52:40.730Z,100903.97
2022-11-14T12:55:26.241Z,100908.81
2022-11-14T12:58:13.834Z,100905.84
2022-11-14T13:01:04.826Z,100915.13
2022-11-14T13:04:08.341Z,100899.66
2022-11-14T13:07:21.006Z,100904.28
2022-11-14T13:10:27.983Z,100908.22
2022-11-14T13:13:36.564Z,100900.84
2022-11-14T13:16:44.303Z,100786.88
2022-11-14T13:19:48.259Z,100878.97
2022-11-14T13:22:47.117Z,100886.41
2022-11-14T13:25:32.757Z,100889.88
2022-11-14T13:28:36.634Z,100898.75
2022-11-14T13:31:35.036Z,100887.09
2022-11-14T13:34:49.896Z,100897.47
2022-11-14T13:37:47.937Z,100874.69
2022-11-14T13:41:04.265Z,100896.78
2022-11-14T13:44:04.810Z,100899.13
2022-11-14T13:47:02.371Z,100805.16
2022-11-14T13:50:05.854Z,100895.56
2022-11-14T13:52:51.587Z,100894.94
2022-11-14T13:56:15.077Z,100876.81
2022-11-14T13:59:31.323Z,100801.66
2022-11-14T14:02:52.943Z,100898.19
2022-11-14T14:06:11.949Z,100908.34
2022-11-14T14:09:08.498Z,100861.13
2022-11-14T14:12:03.033Z,100903.59
2022-11-14T14:15:17.966Z,100904.81
2022-11-14T14:18:03.764Z,100897.31
2022-11-14T14:21:05.647Z,100885.41
2022-11-14T14:24:17.979Z,100896.66
2022-11-14T14:27:24.789Z,100901.91
2022-11-14T14:30:14.218Z,100627.28
2022-11-14T14:33:11.331Z,100898.81
2022-11-14T14:35:56.452Z,100847.38
2022-11-14T14:38:42.365Z,100903.47
2022-11-14T14:41:31.900Z,100881.03
2022-11-14T14:44:37.176Z,100895.50
2022-11-14T14:47:42.165Z,100897.38
2022-11-14T14:50:33.997Z,100892.03
2022-11-14T14:53:21.277Z,100885.75
2022-11-14T14:56:18.613Z,100887.53
2022-11-14T14:59:18.468Z,100871.38
2022-11-14T15:02:04.598Z,100851.66
2022-11-14T15:04:50.296Z,100787.41
2022-11-14T15:07:39.599Z,100868.31
2022-11-14T15:10:29.752Z,100842.22
2022-11-14T15:13:17.984Z,100892.84
2022-11-14T15:16:04.573Z,100888.53
2022-11-14T15:18:52.249Z,100887.41
2022-11-14T15:21:37.601Z,100868.50
2022-11-14T15:24:23.826Z,100790.75
2022-11-14T15:27:19.422Z,100852.84
2022-11-14T15:30:19.380Z,100876.59
2022-11-14T15:33:07.395Z,100798.66
2022-11-14T15:36:17.973Z,100884.28
2022-11-14T15:39:21.713Z,100790.97
2022-11-14T15:42:28.271Z,100884.38
2022-11-14T15:45:23.013Z,100884.09
2022-11-14T15:48:18.365Z,100848.41
2022-11-14T15:51:04.614Z,100865.84
2022-11-14T15:53:52.232Z,100884.75
2022-11-14T15:56:38.276Z,100802.50
2022-11-14T15:59:25.492Z,100808.09
2022-11-14T16:02:17.232Z,100852.16
2022-11-14T16:05:04.500Z,100875.31
2022-11-14T16:07:50.291Z,100518.88
2022-11-14T16:10:35.974Z,100873.31
2022-11-14T16:13:22.283Z,100875.22
2022-11-14T16:16:08.882Z,100878.66
2022-11-14T16:18:54.693Z,100875.00
2022-11-14T16:21:40.724Z,100879.84
2022-11-14T16:24:31.081Z,100799.31
2022-11-14T16:27:18.877Z,100831.97
2022-11-14T16:30:05.020Z,100804.19
2022-11-14T16:32:51.795Z,100859.94
2022-11-14T16:35:37.514Z,100735.81
2022-11-14T16:38:23.032Z,100870.19
2022-11-14T16:41:09.631Z,100871.16
2022-11-14T16:43:56.795Z,100863.28
2022-11-14T16:46:44.176Z,100832.94
2022-11-14T16:49:29.648Z,100863.28
2022-11-14T16:52:17.189Z,100785.16
2022-11-14T16:55:04.490Z,100843.84
2022-11-14T16:57:49.946Z,100788.91
2022-11-14T17:00:37.745Z,100854.31
2022-11-14T17:03:23.380Z,100862.97
2022-11-14T17:06:10.659Z,100864.75
2022-11-14T17:08:57.607Z,100855.59
2022-11-14T17:11:44.850Z,100848.41
2022-11-14T17:14:30.669Z,100844.38
2022-11-14T17:17:16.152Z,100769.69
2022-11-14T17:20:01.957Z,100850.56
2022-11-14T17:22:47.265Z,100829.00
2022-11-14T17:25:33.053Z,100851.34
2022-11-14T17:28:18.485Z,100843.66
2022-11-14T17:31:10.901Z,100676.16
2022-11-14T17:33:59.656Z,100842.28
2022-11-14T17:36:45.352Z,100649.59
2022-11-14T17:39:31.361Z,100813.72
2022-11-14T17:42:16.952Z,100850.47
2022-11-14T17:45:02.735Z,100853.69
2022-11-14T17:47:48.283Z,100844.94
2022-11-14T17:50:37.602Z,100829.34
2022-11-14T17:53:23.468Z,100812.03
2022-11-14T17:56:15.490Z,100834.88
2022-11-14T17:59:01.476Z,100841.69
2022-11-14T18:01:47.640Z,100854.00
2022-11-14T18:04:33.395Z,100847.13
2022-11-14T18:07:20.724Z,100814.44
2022-11-14T18:10:06.668Z,100835.59
2022-11-14T18:12:52.685Z,100848.00
2022-11-14T18:15:39.332Z,100840.00
2022-11-14T18:18:29.070Z,100826.63
2022-11-14T18:21:21.185Z,100822.78
2022-11-14T18:24:14.286Z,100834.72
2022-11-14T18:27:00.028Z,100840.22
2022-11-14T18:29:45.455Z,100809.97
2022-11-14T18:32:32.403Z,100828.69
2022-11-14T18:35:18.240Z,100838.25
2022-11-14T18:38:03.772Z,100829.00
2022-11-14T18:40:54.332Z,100848.09
2022-11-14T18:43:44.584Z,100843.19
2022-11-14T18:46:37.074Z,100839.41
2022-11-14T18:49:23.382Z,100828.00
2022-11-14T18:52:14.205Z,100842.69
2022-11-14T18:55:04.316Z,100807.00
2022-11-14T18:57:49.982Z,100816.78
2022-11-14T19:00:35.633Z,100825.03
2022-11-14T19:03:20.977Z,100790.66
2022-11-14T19:06:08.170Z,100817.16
2022-11-14T19:08:58.951Z,100837.28
2022-11-14T19:12:03.188Z,100742.31
2022-11-14T19:14:53.161Z,100826.84
2022-11-14T19:17:39.102Z,100829.28
2022-11-14T19:20:25.904Z,100710.22
2022-11-14T19:23:12.009Z,100827.81
2022-11-14T19:26:01.616Z,100806.63
2022-11-14T19:28:48.076Z,100824.38
2022-11-14T19:31:34.033Z,100769.59
2022-11-14T19:34:19.673Z,100800.03
2022-11-14T19:37:05.356Z,100584.88
2022-11-14T19:39:55.440Z,100794.81
2022-11-14T19:42:40.982Z,100806.91
2022-11-14T19:45:26.735Z,100805.16
2022-11-14T19:48:12.738Z,100722.03
2022-11-14T19:51:01.953Z,100766.53
2022-11-14T19:53:48.744Z,100804.75
2022-11-14T19:56:34.316Z,100807.09
2022-11-14T19:59:24.192Z,100783.47
2022-11-14T20:02:14.183Z,100805.34
2022-11-14T20:05:00.002Z,100668.09
2022-11-14T20:07:45.508Z,100791.53
2022-11-14T20:10:30.775Z,100687.69
2022-11-14T20:13:16.558Z,100806.44
2022-11-14T20:16:11.528Z,100784.56
2022-11-14T20:19:00.275Z,100789.06
2022-11-14T20:21:46.020Z,100801.88
2022-11-14T20:24:31.682Z,100802.50
2022-11-14T20:27:17.361Z,100776.97
2022-11-14T20:30:04.146Z,100811.16
2022-11-14T20:32:49.868Z,100801.88
2022-11-14T20:35:38.691Z,100783.78
2022-11-14T20:38:24.239Z,100749.50
2022-11-14T20:41:10.795Z,100764.00
2022-11-14T20:43:56.900Z,100432.38
2022-11-14T20:46:42.436Z,100790.59
2022-11-14T20:49:27.829Z,100775.69
2022-11-14T20:52:15.286Z,100775.50
2022-11-14T20:55:01.171Z,100801.63
2022-11-14T20:57:47.072Z,100784.97
2022-11-14T21:00:32.660Z,100794.41
2022-11-14T21:03:19.045Z,100776.00
2022-11-14T21:06:07.264Z,100758.25
2022-11-14T21:08:53.058Z,100742.09
2022-11-14T21:11:38.828Z,100784.84
2022-11-14T21:14:24.778Z,100684.13
2022-11-14T21:17:10.331Z,100793.03
2022-11-14T21:19:55.854Z,100793.72
2022-11-14T21:22:41.563Z,100794.19
2022-11-14T21:25:27.357Z,100795.59
2022-11-14T21:28:13.027Z,100800.59
2022-11-14T21:31:00.888Z,100790.38
2022-11-14T21:33:48.821Z,100546.38
2022-11-14T21:36:49.695Z,100695.81
2022-11-14T21:39:35.140Z,100772.44
2022-11-14T21:42:20.731Z,100674.56
2022-11-14T21:45:07.410Z,100758.75
2022-11-14T21:47:53.179Z,100776.88
2022-11-14T21:50:38.794Z,100784.09
2022-11-14T21:53:24.588Z,100730.88
2022-11-14T21:56:25.736Z,100670.44
2022-11-14T21:59:18.944Z,100768.00
2022-11-14T22:02:23.276Z,100768.00
2022-11-14T22:05:08.805Z,100768.81
2022-11-14T22:07:54.355Z,100662.78
2022-11-14T22:10:39.890Z,100753.53
2022-11-14T22:13:25.180Z,100745.28
2022-11-14T22:16:11.719Z,100642.78
2022-11-14T22:19:04.539Z,100765.38
2022-11-14T22:21:51.122Z,100724.78
2022-11-14T22:24:36.963Z,100736.97
2022-11-14T22:27:22.474Z,100700.25
2022-11-14T22:30:09.036Z,100741.94
2022-11-14T22:32:54.576Z,100741.81
2022-11-14T22:35:40.646Z,100712.47
2022-11-14T22:38:28.929Z,100726.25
2022-11-14T22:41:16.998Z,100728.50
2022-11-14T22:44:02.765Z,100724.72
2022-11-14T22:46:48.437Z,100742.41
2022-11-14T22:49:33.589Z,100687.38
2022-11-14T22:52:19.578Z,100740.72
2022-11-14T22:55:05.406Z,100624.78
2022-11-14T22:57:51.252Z,100727.13
2022-11-14T23:00:37.074Z,100549.31
2022-11-14T23:03:23.056Z,100711.59
2022-11-14T23:06:10.220Z,100611.69
2022-11-14T23:08:56.310Z,100646.25
2022-11-14T23:11:41.772Z,100703.44
2022-11-14T23:14:27.557Z,100723.38
2022-11-14T23:17:13.145Z,100733.63
2022-11-14T23:19:58.818Z,100690.41
2022-11-14T23:22:44.398Z,100699.69
2022-11-14T23:25:29.713Z,100650.00
2022-11-14T23:28:15.876Z,100736.81
2022-11-14T23:31:02.196Z,100724.88
2022-11-14T23:33:49.647Z,100721.53
2022-11-14T23:36:35.061Z,100680.09
2022-11-14T23:39:20.568Z,100706.94
2022-11-14T23:42:06.548Z,100702.03
2022-11-14T23:44:52.043Z,100710.72
2022-11-14T23:47:37.356Z,100695.94
2022-11-14T23:50:25.367Z,100694.25
2022-11-14T23:53:11.783Z,100703.53
2022-11-14T23:56:02.319Z,100638.66
2022-11-14T23:58:48.488Z,100646.72
